Amba, KY

12:39 PM EDT on September 02, 2014 (GMT -0400)
Quail Ridge | Change Station
CLOSE
Current Station
Personal Weather Station
Location: Pikeville, KY
Elevation: 778 ft
Nearby Weather Stations

Elev 778 ft 37.50 °N, 82.54 °W | Updated 3 seconds ago

Mostly Cloudy
Mostly Cloudy
88.1 °F
Feels Like 96 °F
N
1.0
Wind Variable Wind from SW
Gusts 2.0 mph

Today
High -- | Low -- °F
--% Chance of Precip.
Yesterday
High -- | Low -- °F
Precip. -- in
7:01 AM 7:58 PM
First Quarter, 53% visible
Pressure 30.04 in
Visibility 10.0 miles
Clouds Mostly Cloudy 3900 ft
Mostly Cloudy 4700 ft
Mostly Cloudy 6000 ft
Heat Index 96 °F
Dew Point 73 °F
Humidity 61%
Rainfall 0.00 in
Snow Depth Not available.
UV 5 out of 12
Pollen 9.70 out of 12
Air Quality Not available.
Flu Activity Not available.
METAR KSJS 021615Z AUTO 23010G16KT 10SM BKN039 BKN047 BKN060 29/22 A3004 RMK AO2 T02910217

More Conditions Fewer Conditions

Pressure 30.04 in
Visibility 10.0 miles
Clouds Mostly Cloudy 3900 ft
Mostly Cloudy 4700 ft
Mostly Cloudy 6000 ft
Heat Index 96 °F
Dew Point 73 °F
Humidity 61%
Rainfall 0.00 in
Snow Depth Not available.
UV 5 out of 12
Pollen 9.70 out of 12
Air Quality Not available.
Flu Activity Not available.
METAR KSJS 021615Z AUTO 23010G16KT 10SM BKN039 BKN047 BKN060 29/22 A3004 RMK AO2 T02910217

More Conditions Fewer Conditions

10-Day Weather Forecast

Almanac

Astronomy

Sep. 02, 2014 Rise Set
Actual Time 7:01 AM EDT 7:58 PM EDT
Civil Twilight 6:34 AM EDT 8:24 PM EDT
Nautical Twilight 6:03 AM EDT 8:56 PM EDT
Astronomical Twilight 5:30 AM EDT 9:28 PM EDT
Moon 2:36 PM EDT 12:07 AM EDT
Length of Visible Light 13h 49m
Length of Day
12h 56m
Tomorrow will be 2m 19s shorter.
First Quarter, 53% of the Moon is Illuminated
Today
First Quarter
Sep 8
Full
Sep 15
Last Quarter
Sep 24
New
Oct 1
First Quarter

Today's Extremes

State Highs State Lows

Community

WunderPhotos

Upload Photos

1,749,715 photos uploaded!

Nearby

Snow Depth

Station Depth Elevation
No new snow has been reported.

Earthquake Activity

City Distance Mag. Time & Date
No recent earthquake activity has been reported nearby.
Minimum magnitude displayed is 2.5.

Coastal Water Temperatures

Place Temperature
No Stations Reporting

Nearby Weather Stations